Time;durP1;ratioP1;P1;durP2;ratioP2;P2;SDS_P1;SDS_P2;PMS_P1;PMS_P2;Temp;Humidity;BMP_temperature;BMP_pressure;BME280_temperature;BME280_humidity;BME280_pressure;Samples;Min_cycle;Max_cycle;Signal;HPM_P1;HPM_P2
2022/09/29 00:00:10;;;;;;;4.75;2.35;;;9.40;99.90;;;;;;4991279;28;20174;-73
2022/09/29 00:02:36;;;;;;;4.30;2.15;;;9.40;99.90;;;;;;4991737;28;20031;-73
2022/09/29 00:05:01;;;;;;;5.40;2.38;;;9.40;99.90;;;;;;4991269;28;20027;-73
2022/09/29 00:07:33;;;;;;;5.35;2.60;;;9.30;99.90;;;;;;4993133;28;20384;-73
2022/09/29 00:09:58;;;;;;;4.30;2.28;;;9.30;99.90;;;;;;4992259;28;20129;-73
2022/09/29 00:12:25;;;;;;;5.32;2.85;;;9.20;99.90;;;;;;4993269;28;20515;-73
2022/09/29 00:14:51;;;;;;;4.15;2.35;;;9.20;99.90;;;;;;4990818;28;20037;-74
2022/09/29 00:17:17;;;;;;;4.43;2.42;;;9.20;99.90;;;;;;4991722;28;20039;-73
2022/09/29 00:19:43;;;;;;;3.40;2.38;;;9.30;99.90;;;;;;4993197;28;20490;-73
2022/09/29 00:22:08;;;;;;;5.40;2.13;;;9.30;99.90;;;;;;4990988;28;20038;-72
2022/09/29 00:24:34;;;;;;;5.40;2.47;;;9.30;99.90;;;;;;4993165;28;20026;-73
2022/09/29 00:27:00;;;;;;;4.30;2.60;;;9.30;99.90;;;;;;4991187;28;20526;-73
2022/09/29 00:29:26;;;;;;;5.28;2.42;;;9.30;99.90;;;;;;4991551;28;20030;-73
2022/09/29 00:31:52;;;;;;;5.00;2.92;;;9.40;99.90;;;;;;4992077;28;20039;-73
2022/09/29 00:34:17;;;;;;;7.40;2.55;;;9.30;99.90;;;;;;4992836;28;20027;-73
2022/09/29 00:36:43;;;;;;;5.88;3.25;;;9.40;99.90;;;;;;4991581;28;20026;-73
2022/09/29 00:39:09;;;;;;;4.88;2.75;;;9.40;99.90;;;;;;4992299;28;20460;-73
2022/09/29 00:41:37;;;;;;;5.93;2.70;;;9.50;99.90;;;;;;4992767;28;20121;-73
2022/09/29 00:44:41;;;;;;;7.65;2.20;;;9.50;99.90;;;;;;4990929;28;20065;-73
2022/09/29 00:47:11;;;;;;;8.40;2.65;;;9.50;99.90;;;;;;4976520;28;20042;-73
2022/09/29 00:50:01;;;;;;;8.45;2.47;;;9.40;99.90;;;;;;4991269;28;20057;-73
2022/09/29 00:52:48;;;;;;;6.80;2.10;;;9.40;99.90;;;;;;4991113;28;20061;-73
2022/09/29 00:55:30;;;;;;;5.38;2.20;;;9.40;99.90;;;;;;4990823;28;20030;-73
2022/09/29 00:58:07;;;;;;;5.10;2.35;;;9.40;99.90;;;;;;4992255;28;20041;-73
2022/09/29 01:00:33;;;;;;;3.33;2.17;;;9.40;99.90;;;;;;4991396;28;20073;-73
2022/09/29 01:03:07;;;;;;;4.90;2.30;;;9.30;99.90;;;;;;4990738;28;20140;-74
2022/09/29 01:05:37;;;;;;;4.07;2.25;;;9.30;99.90;;;;;;4991299;28;20468;-73
2022/09/29 01:08:11;;;;;;;9.57;2.53;;;9.10;99.90;;;;;;4990819;28;20026;-73
2022/09/29 01:10:40;;;;;;;3.92;2.28;;;9.20;99.90;;;;;;4991295;28;20151;-73
2022/09/29 01:13:05;;;;;;;2.60;2.00;;;9.20;99.90;;;;;;4990766;28;20035;-73
2022/09/29 01:15:32;;;;;;;4.68;2.17;;;9.20;99.90;;;;;;4991160;28;20595;-73
2022/09/29 01:17:58;;;;;;;5.45;2.45;;;9.10;99.90;;;;;;4990659;28;20080;-74
2022/09/29 01:20:24;;;;;;;5.13;2.58;;;9.10;99.90;;;;;;4992400;28;20101;-73
2022/09/29 01:23:17;;;;;;;3.72;2.50;;;9.20;99.90;;;;;;4990955;28;20464;-73
2022/09/29 01:26:36;;;;;;;7.80;2.53;;;9.10;99.90;;;;;;4992588;28;20483;-73
2022/09/29 01:29:29;;;;;;;5.60;2.40;;;9.20;99.90;;;;;;4953929;29;20035;-73
2022/09/29 01:32:01;;;;;;;2.95;2.17;;;9.20;99.90;;;;;;4977780;28;20074;-74
2022/09/29 01:35:07;;;;;;;4.85;2.20;;;9.20;99.90;;;;;;4978312;28;20085;-73
2022/09/29 01:37:54;;;;;;;4.20;2.20;;;9.10;99.90;;;;;;4978141;28;20042;-73
2022/09/29 01:40:37;;;;;;;4.40;2.30;;;9.00;99.90;;;;;;4994571;28;20030;-73
2022/09/29 01:43:08;;;;;;;5.35;2.42;;;8.90;99.90;;;;;;4993702;28;20525;-73
2022/09/29 01:45:43;;;;;;;4.13;2.13;;;8.80;99.90;;;;;;4994582;28;20037;-73
2022/09/29 01:48:25;;;;;;;4.63;2.38;;;8.90;99.90;;;;;;4993755;28;20054;-73
2022/09/29 01:50:57;;;;;;;3.80;2.20;;;8.90;99.90;;;;;;4994085;28;20376;-73
2022/09/29 01:53:29;;;;;;;3.90;2.28;;;8.80;99.90;;;;;;4994286;28;20455;-73
2022/09/29 01:56:00;;;;;;;3.47;2.40;;;8.90;99.90;;;;;;4993655;28;20030;-77
2022/09/29 01:58:56;;;;;;;8.48;1.90;;;8.80;99.90;;;;;;4995483;28;20034;-73
2022/09/29 02:01:27;;;;;;;3.75;2.20;;;8.80;99.90;;;;;;4995181;28;20038;-73
2022/09/29 02:04:23;;;;;;;3.67;2.08;;;8.70;99.90;;;;;;4994122;28;20100;-73
2022/09/29 02:07:02;;;;;;;4.10;1.92;;;8.70;99.90;;;;;;4993866;28;20081;-73
2022/09/29 02:09:34;;;;;;;3.08;2.00;;;8.70;99.90;;;;;;4994082;28;20030;-73
2022/09/29 02:12:01;;;;;;;;;;;8.70;99.90;;;;;;4993485;28;20097;-73
2022/09/29 02:14:32;;;;;;;3.53;1.90;;;8.80;99.90;;;;;;4995044;28;19960;-73
2022/09/29 02:17:18;;;;;;;4.35;2.28;;;8.70;99.90;;;;;;4994197;28;20053;-74
2022/09/29 02:19:44;;;;;;;4.45;1.70;;;8.70;99.90;;;;;;4993627;28;20117;-73
2022/09/29 02:22:10;;;;;;;3.60;1.98;;;8.70;99.90;;;;;;4992975;28;20126;-73
2022/09/29 02:24:36;;;;;;;4.15;1.92;;;8.70;99.90;;;;;;4994821;28;20109;-73
2022/09/29 02:27:02;;;;;;;3.42;2.20;;;8.70;99.90;;;;;;4992981;28;20494;-73
2022/09/29 02:29:28;;;;;;;5.13;2.08;;;8.70;99.90;;;;;;4993307;28;20030;-73
2022/09/29 02:31:56;;;;;;;3.00;1.75;;;8.70;99.90;;;;;;4993368;28;20460;-73
2022/09/29 02:34:22;;;;;;;7.90;2.47;;;8.70;99.90;;;;;;4993611;28;20027;-73
2022/09/29 02:37:08;;;;;;;5.78;2.30;;;8.70;99.90;;;;;;4993271;28;20034;-73
2022/09/29 02:39:58;;;;;;;5.72;2.22;;;8.70;99.90;;;;;;4994277;28;20114;-73
2022/09/29 02:42:23;;;;;;;3.30;2.40;;;8.70;99.90;;;;;;4994531;28;20035;-73
2022/09/29 02:44:56;;;;;;;5.65;2.63;;;8.70;99.90;;;;;;4976708;28;20031;-73
2022/09/29 02:47:31;;;;;;;4.72;2.40;;;8.70;99.90;;;;;;4976420;28;20026;-73
2022/09/29 02:50:20;;;;;;;5.63;2.35;;;8.80;99.90;;;;;;4976524;28;20046;-73
2022/09/29 02:53:01;;;;;;;3.88;2.47;;;8.80;99.90;;;;;;4976741;28;20088;-73
2022/09/29 02:55:45;;;;;;;7.60;2.83;;;8.70;99.90;;;;;;4976689;28;20057;-72
2022/09/29 02:58:19;;;;;;;5.88;2.65;;;8.70;99.90;;;;;;4976184;28;20026;-73
2022/09/29 03:00:46;;;;;;;5.53;2.70;;;8.70;99.90;;;;;;4993156;28;20045;-72
2022/09/29 03:03:11;;;;;;;11.63;2.75;;;8.70;99.90;;;;;;4992224;28;20085;-73
2022/09/29 03:05:37;;;;;;;5.55;2.42;;;8.70;99.90;;;;;;4992676;28;20456;-73
2022/09/29 03:08:03;;;;;;;5.97;2.47;;;8.60;99.90;;;;;;4993168;28;20498;-73
2022/09/29 03:10:28;;;;;;;6.07;1.98;;;8.60;99.90;;;;;;4992523;28;20033;-73
2022/09/29 03:12:54;;;;;;;3.40;1.80;;;8.60;99.90;;;;;;4992577;28;20026;-73
2022/09/29 03:15:20;;;;;;;5.47;2.00;;;8.60;99.90;;;;;;4993271;28;20036;-73
2022/09/29 03:17:46;;;;;;;5.38;2.20;;;8.60;99.90;;;;;;4992499;28;20417;-73
2022/09/29 03:20:11;;;;;;;3.55;2.05;;;8.60;99.90;;;;;;4991835;28;20464;-73
2022/09/29 03:22:37;;;;;;;3.63;2.10;;;8.60;99.90;;;;;;4992429;28;20038;-73
2022/09/29 03:25:05;;;;;;;3.83;2.00;;;8.60;99.90;;;;;;4993161;28;20022;-73
2022/09/29 03:27:31;;;;;;;2.70;2.03;;;8.60;99.90;;;;;;4993672;28;20019;-73
2022/09/29 03:29:56;;;;;;;6.50;2.00;;;8.70;99.90;;;;;;4993140;28;20034;-73
2022/09/29 03:32:22;;;;;;;6.47;2.05;;;8.70;99.90;;;;;;4993230;28;20519;-73
2022/09/29 03:34:48;;;;;;;3.22;1.85;;;8.70;99.90;;;;;;4992194;28;20023;-73
2022/09/29 03:37:13;;;;;;;3.90;1.90;;;8.60;99.90;;;;;;4992942;28;20026;-73
2022/09/29 03:39:39;;;;;;;5.93;2.45;;;8.60;99.90;;;;;;4993411;28;20023;-73
2022/09/29 03:42:05;;;;;;;5.50;2.13;;;8.60;99.90;;;;;;4991361;28;20038;-73
2022/09/29 03:44:30;;;;;;;4.35;2.00;;;8.60;99.90;;;;;;4993335;28;20026;-73
2022/09/29 03:46:56;;;;;;;5.60;2.42;;;8.60;99.90;;;;;;4992060;28;20498;-73
2022/09/29 03:49:21;;;;;;;4.32;1.90;;;8.60;99.90;;;;;;4990620;28;20050;-73
2022/09/29 03:51:47;;;;;;;4.65;1.85;;;8.60;99.90;;;;;;4991784;28;20121;-73
2022/09/29 03:54:13;;;;;;;4.60;1.85;;;8.50;99.90;;;;;;4991366;28;20053;-73
2022/09/29 03:56:38;;;;;;;4.13;1.77;;;8.50;99.90;;;;;;4991902;28;20026;-73
2022/09/29 03:59:07;;;;;;;5.38;1.98;;;8.50;99.90;;;;;;4991495;28;20030;-73
2022/09/29 04:01:33;;;;;;;5.75;2.15;;;8.50;99.90;;;;;;4991771;28;20038;-73
2022/09/29 04:03:59;;;;;;;4.32;1.90;;;8.50;99.90;;;;;;4993195;28;20146;-73
2022/09/29 04:06:25;;;;;;;6.85;1.90;;;8.50;99.90;;;;;;4991319;28;20066;-73
2022/09/29 04:08:51;;;;;;;5.28;2.15;;;8.50;99.90;;;;;;4991811;28;20018;-73
2022/09/29 04:11:16;;;;;;;4.18;1.90;;;8.50;99.90;;;;;;4991180;28;20041;-73
2022/09/29 04:13:42;;;;;;;3.60;2.00;;;8.50;99.90;;;;;;4991665;28;20077;-73
2022/09/29 04:16:07;;;;;;;4.03;1.80;;;8.50;99.90;;;;;;4991320;28;20026;-73
2022/09/29 04:18:33;;;;;;;3.80;1.67;;;8.50;99.90;;;;;;4993258;28;20061;-73
2022/09/29 04:21:03;;;;;;;2.42;1.60;;;8.50;99.90;;;;;;4992948;28;20026;-73
2022/09/29 04:23:29;;;;;;;3.60;2.10;;;8.50;99.90;;;;;;4991800;28;20376;-73
2022/09/29 04:25:59;;;;;;;3.97;1.73;;;8.50;99.90;;;;;;4991643;28;20027;-73
2022/09/29 04:28:25;;;;;;;3.08;1.73;;;8.50;99.90;;;;;;4992536;28;20034;-73
2022/09/29 04:30:51;;;;;;;3.55;1.80;;;8.40;99.90;;;;;;4991661;28;20049;-73
2022/09/29 04:33:17;;;;;;;3.85;2.03;;;8.40;99.90;;;;;;4991081;28;20030;-73
2022/09/29 04:35:42;;;;;;;5.30;1.95;;;8.50;99.90;;;;;;4993012;28;20092;-73
2022/09/29 04:38:08;;;;;;;5.30;1.73;;;8.50;99.90;;;;;;4990977;28;20027;-73
2022/09/29 04:40:35;;;;;;;5.10;1.80;;;8.50;99.90;;;;;;4991160;28;20030;-73
2022/09/29 04:43:01;;;;;;;6.25;1.77;;;8.50;99.90;;;;;;4991464;28;20065;-73
2022/09/29 04:45:26;;;;;;;3.03;2.00;;;8.50;99.90;;;;;;4990936;28;20057;-72
2022/09/29 04:47:52;;;;;;;2.53;1.55;;;8.40;99.90;;;;;;4991567;28;20454;-73
2022/09/29 04:50:17;;;;;;;5.35;1.80;;;8.40;99.90;;;;;;4991973;28;20547;-73
2022/09/29 04:52:44;;;;;;;5.30;1.92;;;8.40;99.90;;;;;;4991359;28;20112;-73
2022/09/29 04:55:10;;;;;;;3.92;1.75;;;8.40;99.90;;;;;;4990775;28;20031;-73
2022/09/29 04:57:37;;;;;;;3.33;1.92;;;8.40;99.90;;;;;;4991211;28;20137;-73
2022/09/29 05:00:05;;;;;;;4.65;1.80;;;8.40;99.90;;;;;;4992625;28;20037;-73
2022/09/29 05:02:30;;;;;;;5.03;1.77;;;8.40;99.90;;;;;;4995222;28;20062;-73
2022/09/29 05:04:56;;;;;;;3.38;1.60;;;8.40;99.90;;;;;;4995061;28;20103;-73
2022/09/29 05:07:21;;;;;;;4.65;1.73;;;8.40;99.90;;;;;;4994500;28;20451;-73
2022/09/29 05:09:47;;;;;;;3.38;1.70;;;8.50;99.90;;;;;;4996228;28;20031;-73
2022/09/29 05:12:13;;;;;;;2.67;1.73;;;8.50;99.90;;;;;;4995421;28;20026;-73
2022/09/29 05:14:39;;;;;;;2.70;1.88;;;8.50;99.90;;;;;;4995770;28;20029;-73
2022/09/29 05:17:04;;;;;;;5.78;2.25;;;8.40;99.90;;;;;;4994774;28;20058;-72
2022/09/29 05:19:31;;;;;;;6.20;2.00;;;8.40;99.90;;;;;;4995533;28;20023;-73
2022/09/29 05:21:58;;;;;;;5.10;2.00;;;8.40;99.90;;;;;;4994567;28;20034;-73
2022/09/29 05:24:24;;;;;;;4.32;1.80;;;8.30;99.90;;;;;;4994105;28;20394;-73
2022/09/29 05:26:49;;;;;;;5.75;2.40;;;8.40;99.90;;;;;;4996175;28;20036;-73
2022/09/29 05:29:15;;;;;;;2.78;1.77;;;8.30;99.90;;;;;;4995492;28;20307;-73
2022/09/29 05:31:41;;;;;;;6.43;1.60;;;8.30;99.90;;;;;;4994515;28;20452;-73
2022/09/29 05:34:07;;;;;;;2.60;1.60;;;8.30;99.90;;;;;;4995740;28;20026;-73
2022/09/29 05:36:32;;;;;;;3.60;1.85;;;8.30;99.90;;;;;;4995790;28;20027;-73
2022/09/29 05:38:58;;;;;;;3.58;1.63;;;8.30;99.90;;;;;;4994372;28;20026;-73
2022/09/29 05:41:24;;;;;;;8.15;2.10;;;8.40;99.90;;;;;;4995032;28;20518;-73
2022/09/29 05:43:52;;;;;;;7.85;2.25;;;8.50;99.90;;;;;;4995711;28;20526;-73
2022/09/29 05:46:18;;;;;;;4.88;1.98;;;8.50;99.90;;;;;;4993731;28;20371;-73
2022/09/29 05:48:45;;;;;;;5.35;2.15;;;8.50;99.90;;;;;;4995399;28;20030;-73
2022/09/29 05:51:17;;;;;;;3.67;1.95;;;8.60;99.90;;;;;;4993883;28;20383;-74
2022/09/29 05:53:42;;;;;;;3.85;2.03;;;8.60;99.90;;;;;;4994312;28;20038;-73
2022/09/29 05:56:30;;;;;;;3.55;1.88;;;8.60;99.90;;;;;;4993806;28;20027;-73
2022/09/29 05:58:55;;;;;;;4.65;2.20;;;8.50;99.90;;;;;;4994566;28;20046;-73
2022/09/29 06:01:23;;;;;;;2.92;1.80;;;8.60;99.90;;;;;;4993528;28;20149;-73
2022/09/29 06:03:52;;;;;;;5.80;2.00;;;8.50;99.90;;;;;;4993981;28;20436;-73
2022/09/29 06:06:21;;;;;;;4.13;2.05;;;8.50;99.90;;;;;;4993383;28;20431;-73
2022/09/29 06:08:47;;;;;;;4.43;2.10;;;8.50;99.90;;;;;;4993898;28;20387;-73
2022/09/29 06:11:16;;;;;;;2.30;1.80;;;8.60;99.90;;;;;;4994659;28;20419;-73
2022/09/29 06:13:43;;;;;;;8.02;2.60;;;8.70;99.90;;;;;;4993166;28;20034;-73
2022/09/29 06:16:10;;;;;;;6.28;2.63;;;8.70;99.90;;;;;;4994858;28;20033;-73
2022/09/29 06:18:36;;;;;;;4.82;2.33;;;8.80;99.90;;;;;;4994806;28;20030;-73
2022/09/29 06:21:05;;;;;;;6.25;2.20;;;8.80;99.90;;;;;;4994905;28;20073;-73
2022/09/29 06:23:30;;;;;;;6.88;2.47;;;8.90;99.90;;;;;;4993086;28;20518;-73
2022/09/29 06:25:57;;;;;;;3.50;2.13;;;8.90;99.90;;;;;;4993654;28;20109;-72
2022/09/29 06:28:23;;;;;;;7.53;2.55;;;8.90;99.90;;;;;;4992981;28;20041;-73
2022/09/29 06:30:49;;;;;;;6.45;2.65;;;9.00;99.90;;;;;;4993119;28;20034;-73
2022/09/29 06:33:15;;;;;;;5.93;2.70;;;9.00;99.90;;;;;;4994026;28;20049;-73
2022/09/29 06:38:32;;;;;;;6.50;2.33;;;9.20;99.90;;;;;;4994192;28;20045;-73
2022/09/29 06:40:57;;;;;;;7.07;2.33;;;9.20;99.90;;;;;;4993199;28;20031;-73
2022/09/29 06:43:23;;;;;;;4.63;2.20;;;9.20;99.90;;;;;;4992645;28;20129;-73
2022/09/29 06:45:48;;;;;;;6.10;2.78;;;9.30;99.90;;;;;;4993410;28;20116;-73
2022/09/29 06:48:14;;;;;;;6.95;2.70;;;9.30;99.90;;;;;;4992545;28;20380;-73
2022/09/29 06:50:39;;;;;;;6.47;2.90;;;9.30;99.90;;;;;;4994083;28;20051;-73
2022/09/29 06:53:05;;;;;;;13.75;3.85;;;9.30;99.90;;;;;;4993093;28;20471;-73
2022/09/29 06:55:31;;;;;;;10.05;2.72;;;9.30;99.90;;;;;;4993849;28;20035;-73
2022/09/29 06:57:57;;;;;;;8.02;2.45;;;9.40;99.90;;;;;;4992699;28;20035;-73
2022/09/29 07:00:22;;;;;;;11.15;3.40;;;9.50;99.90;;;;;;4993719;28;20097;-73
2022/09/29 07:02:48;;;;;;;4.60;2.03;;;9.50;99.90;;;;;;4993059;28;20038;-73
2022/09/29 07:05:15;;;;;;;2.65;2.08;;;9.60;99.90;;;;;;4992226;28;20509;-73
2022/09/29 07:07:41;;;;;;;9.07;3.67;;;9.60;99.90;;;;;;4992692;28;20475;-73
2022/09/29 07:10:07;;;;;;;8.07;2.72;;;9.70;99.90;;;;;;4992748;28;20030;-73
2022/09/29 07:12:33;;;;;;;7.35;2.63;;;9.70;99.90;;;;;;4992220;28;20178;-73
2022/09/29 07:14:58;;;;;;;11.15;3.30;;;9.70;99.90;;;;;;4992736;28;20380;-73
2022/09/29 07:17:24;;;;;;;14.25;3.38;;;9.70;99.90;;;;;;4992167;28;20031;-73
2022/09/29 07:19:49;;;;;;;6.03;3.08;;;9.80;99.90;;;;;;4994111;28;20023;-73
2022/09/29 07:22:15;;;;;;;4.53;2.22;;;9.80;99.90;;;;;;4992025;28;20464;-74
2022/09/29 07:24:42;;;;;;;4.63;2.53;;;10.00;99.90;;;;;;4992905;28;20035;-73
2022/09/29 07:27:08;;;;;;;7.15;2.80;;;10.10;99.90;;;;;;4993641;28;20022;-74
2022/09/29 07:29:34;;;;;;;3.90;2.35;;;10.10;99.90;;;;;;4991627;28;20368;-73
2022/09/29 07:31:59;;;;;;;2.85;2.13;;;10.00;99.90;;;;;;4993884;28;20391;-73
2022/09/29 07:34:25;;;;;;;4.82;2.40;;;10.10;99.90;;;;;;4993192;28;20034;-73
2022/09/29 07:36:50;;;;;;;6.25;2.53;;;10.10;99.90;;;;;;4992324;28;20026;-73
2022/09/29 07:39:18;;;;;;;4.97;2.67;;;10.10;99.90;;;;;;4991865;28;20026;-73
2022/09/29 07:41:44;;;;;;;7.82;2.83;;;10.20;99.90;;;;;;4991956;28;20034;-73
2022/09/29 07:44:10;;;;;;;5.22;2.90;;;10.20;99.90;;;;;;4992242;28;20479;-73
2022/09/29 07:46:35;;;;;;;6.75;2.80;;;10.30;99.90;;;;;;4991606;28;20070;-73
2022/09/29 07:49:01;;;;;;;5.32;2.78;;;10.40;99.90;;;;;;4991945;28;20055;-73
2022/09/29 07:51:27;;;;;;;4.22;2.80;;;10.40;99.90;;;;;;4992863;28;20030;-73
2022/09/29 07:53:52;;;;;;;6.50;3.22;;;10.50;99.90;;;;;;4992249;28;20030;-73
2022/09/29 07:56:20;;;;;;;5.43;3.00;;;10.60;99.90;;;;;;4991600;28;20026;-73
2022/09/29 07:58:48;;;;;;;7.38;3.30;;;10.60;99.90;;;;;;4993432;28;20039;-73
2022/09/29 08:01:15;;;;;;;5.55;3.20;;;10.70;99.90;;;;;;4991905;28;20031;-73
2022/09/29 08:03:50;;;;;;;5.25;3.10;;;10.80;99.90;;;;;;4992993;28;20476;-73
2022/09/29 08:06:15;;;;;;;8.02;3.30;;;10.90;99.90;;;;;;4991969;28;20125;-74
2022/09/29 08:08:41;;;;;;;6.00;3.70;;;10.90;99.90;;;;;;4991110;28;20053;-74
2022/09/29 08:11:10;;;;;;;10.18;3.70;;;11.00;99.90;;;;;;4991987;28;20193;-73
2022/09/29 08:13:36;;;;;;;7.85;4.07;;;11.10;99.90;;;;;;4975188;28;20356;-73
2022/09/29 08:16:05;;;;;;;8.93;3.83;;;11.10;99.90;;;;;;4993077;28;20030;-73
2022/09/29 08:18:31;;;;;;;7.85;3.90;;;11.30;99.90;;;;;;4991410;28;20030;-73
2022/09/29 08:20:57;;;;;;;9.00;4.22;;;11.40;99.90;;;;;;4991841;28;20029;-73
2022/09/29 08:23:23;;;;;;;9.52;5.03;;;11.50;99.90;;;;;;4991316;28;20030;-75
2022/09/29 08:25:49;;;;;;;12.23;5.55;;;11.60;99.90;;;;;;4993016;28;20026;-74
2022/09/29 08:28:15;;;;;;;11.75;5.30;;;11.60;99.90;;;;;;4992884;28;20034;-73
2022/09/29 08:30:41;;;;;;;8.52;5.25;;;11.70;99.90;;;;;;4992336;28;20030;-73
2022/09/29 08:33:13;;;;;;;11.10;5.22;;;11.90;99.90;;;;;;4992926;28;20034;-73
2022/09/29 08:35:40;;;;;;;10.90;5.25;;;12.00;99.90;;;;;;4991288;28;20113;-73
2022/09/29 08:38:05;;;;;;;19.17;10.70;;;11.90;99.90;;;;;;4995536;28;20034;-74
2022/09/29 08:40:32;;;;;;;16.25;6.72;;;12.00;99.90;;;;;;4978987;28;20030;-74
2022/09/29 08:43:17;;;;;;;11.82;5.80;;;12.00;99.90;;;;;;4995476;28;20461;-73
2022/09/29 08:45:53;;;;;;;10.80;5.70;;;11.90;99.90;;;;;;4996348;28;20024;-73
2022/09/29 08:48:22;;;;;;;14.25;6.18;;;11.90;99.90;;;;;;4995001;28;20499;-78
2022/09/29 08:51:23;;;;;;;11.88;6.63;;;12.00;99.90;;;;;;4995219;28;20528;-73
2022/09/29 08:53:51;;;;;;;14.38;6.70;;;12.10;99.90;;;;;;4955437;29;20362;-73
2022/09/29 08:56:18;;;;;;;14.30;6.88;;;12.10;99.90;;;;;;4971486;28;20046;-73
2022/09/29 08:58:43;;;;;;;14.20;7.22;;;12.20;99.90;;;;;;4994808;28;20034;-73
2022/09/29 09:01:30;;;;;;;14.15;6.78;;;12.30;99.90;;;;;;4995123;28;20383;-73
2022/09/29 09:04:01;;;;;;;16.55;7.32;;;12.40;99.90;;;;;;4978990;28;20034;-74
2022/09/29 09:07:20;;;;;;;15.90;7.65;;;12.40;99.90;;;;;;4994646;28;20026;-74
2022/09/29 09:10:06;;;;;;;15.90;7.75;;;12.30;99.90;;;;;;4939267;29;20039;-73
2022/09/29 09:12:53;;;;;;;16.55;7.88;;;12.20;99.90;;;;;;4938699;29;20034;-73
2022/09/29 09:15:29;;;;;;;15.93;8.38;;;12.20;99.90;;;;;;4955272;29;20595;-73
2022/09/29 09:18:19;;;;;;;17.80;8.45;;;12.20;99.90;;;;;;4955335;29;20102;-73
2022/09/29 09:20:51;;;;;;;16.10;8.68;;;12.20;99.90;;;;;;4954558;29;20036;-73
2022/09/29 09:23:24;;;;;;;17.52;8.63;;;12.10;99.90;;;;;;4955132;29;20098;-73
2022/09/29 09:26:02;;;;;;;24.58;12.02;;;12.20;99.90;;;;;;4939055;29;20024;-73
2022/09/29 09:28:30;;;;;;;84.72;41.97;;;12.40;99.90;;;;;;4954216;29;20047;-74
2022/09/29 09:31:12;;;;;;;20.45;12.23;;;12.50;99.90;;;;;;4954747;29;20045;-73
2022/09/29 09:33:56;;;;;;;15.98;8.55;;;12.50;99.90;;;;;;4938270;29;20031;-73
2022/09/29 09:36:36;;;;;;;14.23;8.35;;;12.60;99.90;;;;;;4938287;29;20031;-77
2022/09/29 09:39:19;;;;;;;12.25;7.50;;;12.70;99.90;;;;;;4938904;29;20452;-73
2022/09/29 09:41:47;;;;;;;11.63;7.10;;;12.80;99.90;;;;;;4977969;28;20041;-73
2022/09/29 09:44:24;;;;;;;13.90;6.90;;;13.00;99.90;;;;;;4994476;28;20033;-73
2022/09/29 09:46:57;;;;;;;12.65;6.93;;;13.10;99.90;;;;;;4994345;28;20034;-73
2022/09/29 09:49:30;;;;;;;12.80;6.22;;;13.20;99.90;;;;;;4992942;28;20078;-78
2022/09/29 09:52:02;;;;;;;8.38;4.95;;;13.10;99.90;;;;;;4995772;28;20034;-73
2022/09/29 09:54:34;;;;;;;10.55;5.80;;;13.20;99.90;;;;;;4995029;28;20073;-74
2022/09/29 09:57:30;;;;;;;10.80;5.50;;;13.20;99.90;;;;;;4978080;28;20030;-73
2022/09/29 10:00:22;;;;;;;10.77;5.82;;;13.30;99.90;;;;;;4995605;28;20475;-73
2022/09/29 10:02:54;;;;;;;11.05;6.22;;;13.40;99.90;;;;;;4977543;28;20399;-73
2022/09/29 10:05:33;;;;;;;11.57;7.00;;;13.50;99.90;;;;;;4994218;28;20396;-73
2022/09/29 10:07:59;;;;;;;13.60;6.50;;;13.60;99.90;;;;;;4994085;28;20482;-73
2022/09/29 10:10:27;;;;;;;10.73;5.90;;;13.70;99.90;;;;;;4993351;28;20029;-75
2022/09/29 10:13:00;;;;;;;12.70;6.25;;;13.70;99.90;;;;;;4995247;28;20037;-73
2022/09/29 10:16:02;;;;;;;8.65;5.40;;;13.70;99.90;;;;;;4977455;28;20041;-73
2022/09/29 10:18:47;;;;;;;7.55;5.18;;;13.90;99.90;;;;;;4971380;28;20054;-74
2022/09/29 10:21:22;;;;;;;7.85;5.18;;;14.00;99.90;;;;;;4995082;28;20022;-73
2022/09/29 10:23:55;;;;;;;10.15;5.47;;;14.00;99.90;;;;;;4993244;28;20026;-74
2022/09/29 10:26:28;;;;;;;11.00;4.28;;;14.00;99.90;;;;;;4993732;28;20033;-73
2022/09/29 10:28:53;;;;;;;8.90;4.65;;;14.00;99.90;;;;;;4993588;28;20026;-73
2022/09/29 10:31:29;;;;;;;9.88;5.10;;;13.80;99.90;;;;;;4977404;28;20041;-73
2022/09/29 10:34:00;;;;;;;8.02;4.68;;;13.80;99.90;;;;;;4993853;28;20468;-73
2022/09/29 10:36:32;;;;;;;7.60;4.43;;;13.80;99.90;;;;;;4976762;28;20057;-76
2022/09/29 10:38:58;;;;;;;8.75;4.53;;;13.70;99.90;;;;;;4993148;28;20089;-73
2022/09/29 10:41:24;;;;;;;7.32;3.90;;;13.80;99.90;;;;;;4993398;28;20030;-73
2022/09/29 10:43:53;;;;;;;7.43;4.50;;;13.80;99.90;;;;;;4992513;28;20157;-74
2022/09/29 10:46:36;;;;;;;9.20;4.55;;;13.80;99.90;;;;;;4993410;28;20038;-74
2022/09/29 10:49:18;;;;;;;8.38;3.70;;;13.80;99.90;;;;;;4994360;28;20049;-75
2022/09/29 10:52:02;;;;;;;9.40;4.40;;;13.70;99.90;;;;;;4994004;28;20030;-73
2022/09/29 10:54:35;;;;;;;6.63;3.47;;;13.80;99.90;;;;;;4992876;28;20035;-73
2022/09/29 10:57:13;;;;;;;5.97;3.83;;;14.00;99.90;;;;;;4993130;28;20037;-73
2022/09/29 10:59:47;;;;;;;6.53;3.90;;;14.00;99.90;;;;;;4992545;28;20031;-73
2022/09/29 11:02:23;;;;;;;7.28;3.75;;;14.10;99.90;;;;;;4992987;28;20034;-73
2022/09/29 11:04:51;;;;;;;6.07;3.80;;;14.10;99.90;;;;;;4976402;28;20026;-73
2022/09/29 11:07:17;;;;;;;5.15;3.20;;;14.10;99.90;;;;;;4976752;28;20080;-73
2022/09/29 11:09:44;;;;;;;6.85;3.58;;;14.20;99.90;;;;;;4993405;28;20062;-73
2022/09/29 11:12:33;;;;;;;6.28;3.42;;;14.40;99.90;;;;;;4992869;28;20356;-73
2022/09/29 11:15:00;;;;;;;6.05;3.22;;;14.40;99.90;;;;;;4993046;28;20045;-73
2022/09/29 11:17:38;;;;;;;5.60;3.33;;;14.50;99.90;;;;;;4992658;28;20475;-75
2022/09/29 11:20:10;;;;;;;5.05;3.33;;;14.50;99.90;;;;;;4992738;28;20030;-72
2022/09/29 11:23:15;;;;;;;7.90;3.08;;;14.50;99.90;;;;;;4992158;28;20487;-73
2022/09/29 11:26:09;;;;;;;3.92;3.30;;;14.60;99.90;;;;;;4975946;28;20384;-73
2022/09/29 11:28:52;;;;;;;6.22;3.60;;;14.70;99.90;;;;;;4960434;28;20045;-73
2022/09/29 11:31:17;;;;;;;7.40;3.90;;;14.80;99.90;;;;;;4994078;28;20353;-75
2022/09/29 11:34:00;;;;;;;8.68;3.70;;;14.80;99.90;;;;;;4975785;28;20030;-74
2022/09/29 11:36:33;;;;;;;6.97;3.10;;;14.90;99.90;;;;;;4993775;28;20454;-73
2022/09/29 11:39:18;;;;;;;6.18;3.42;;;14.90;99.90;;;;;;4976293;28;20396;-73
2022/09/29 11:41:59;;;;;;;4.95;3.75;;;14.80;99.90;;;;;;4993213;28;20033;-73
2022/09/29 11:44:43;;;;;;;5.00;2.88;;;14.90;99.90;;;;;;4992397;28;20499;-75
2022/09/29 11:47:44;;;;;;;4.47;2.97;;;14.90;99.90;;;;;;4992349;28;20034;-75
2022/09/29 11:50:16;;;;;;;4.78;2.83;;;14.90;99.90;;;;;;4985469;28;20056;-73
2022/09/29 11:52:47;;;;;;;5.47;3.58;;;15.00;99.90;;;;;;4975578;28;20490;-74
2022/09/29 11:55:37;;;;;;;7.28;3.17;;;15.10;99.90;;;;;;4976005;28;20030;-73
2022/09/29 11:58:30;;;;;;;5.57;3.20;;;15.20;99.90;;;;;;4993211;28;20030;-73
2022/09/29 12:01:43;;;;;;;5.05;3.30;;;15.20;99.90;;;;;;4993274;28;20113;-73
2022/09/29 12:04:40;;;;;;;5.50;2.88;;;15.40;99.90;;;;;;4956865;28;20100;-73
2022/09/29 12:07:51;;;;;;;8.65;3.28;;;15.50;99.90;;;;;;4992087;28;20104;-73
2022/09/29 12:10:20;;;;;;;8.98;3.78;;;15.60;99.90;;;;;;4939895;28;20043;-73
2022/09/29 12:13:04;;;;;;;8.15;3.30;;;15.50;99.90;;;;;;4992449;28;20034;-73
2022/09/29 12:15:44;;;;;;;5.15;3.20;;;15.40;99.90;;;;;;4975763;28;20033;-73
2022/09/29 12:18:17;;;;;;;6.95;3.33;;;15.40;99.90;;;;;;4975522;28;20468;-73
2022/09/29 12:20:46;;;;;;;5.05;2.80;;;15.40;99.90;;;;;;4992611;28;20030;-73
2022/09/29 12:23:15;;;;;;;6.90;3.38;;;15.50;99.90;;;;;;4991747;28;20041;-73
2022/09/29 12:26:15;;;;;;;6.55;3.33;;;15.40;99.90;;;;;;4991012;28;20034;-73
2022/09/29 12:29:00;;;;;;;6.65;3.35;;;15.40;99.90;;;;;;4954112;28;20085;-73
2022/09/29 12:31:34;;;;;;;5.80;2.90;;;15.40;99.90;;;;;;4991668;28;20057;-73
2022/09/29 12:34:24;;;;;;;5.80;3.05;;;15.40;99.90;;;;;;4991695;28;20026;-73
2022/09/29 12:37:02;;;;;;;6.43;2.88;;;15.40;99.90;;;;;;4991112;28;20490;-73
2022/09/29 12:39:43;;;;;;;6.88;3.00;;;15.40;99.90;;;;;;4991773;28;20026;-73
2022/09/29 12:42:30;;;;;;;7.32;2.90;;;15.40;99.90;;;;;;4975416;28;20030;-75
2022/09/29 12:45:20;;;;;;;6.05;2.78;;;15.40;99.90;;;;;;4991261;28;20038;-73
2022/09/29 12:48:13;;;;;;;5.38;2.40;;;15.40;99.90;;;;;;4991143;28;20058;-75
2022/09/29 12:50:45;;;;;;;3.10;2.20;;;15.40;99.90;;;;;;4991899;28;20121;-73
2022/09/29 12:53:16;;;;;;;5.75;2.53;;;15.40;99.90;;;;;;4991750;28;20034;-73
2022/09/29 12:56:03;;;;;;;6.65;2.88;;;15.30;99.90;;;;;;4974905;28;20360;-73
2022/09/29 12:58:36;;;;;;;4.05;2.28;;;15.30;99.90;;;;;;4992711;28;20029;-76
2022/09/29 13:01:29;;;;;;;5.10;2.38;;;15.30;99.90;;;;;;4975252;28;20039;-73
2022/09/29 13:04:03;;;;;;;5.28;2.47;;;15.40;99.90;;;;;;4990992;28;20039;-73
2022/09/29 13:06:59;;;;;;;4.32;2.47;;;15.40;99.90;;;;;;4975300;28;20030;-73
2022/09/29 13:09:59;;;;;;;8.52;2.60;;;15.30;99.90;;;;;;4975139;28;20048;-73
2022/09/29 13:12:33;;;;;;;3.28;1.70;;;15.20;99.90;;;;;;4991440;28;20030;-73
2022/09/29 13:15:16;;;;;;;2.58;1.50;;;15.10;99.90;;;;;;4974580;28;20113;-73
2022/09/29 13:18:09;;;;;;;5.70;1.70;;;15.10;99.90;;;;;;4992115;28;20049;-73
2022/09/29 13:21:03;;;;;;;4.65;1.85;;;15.00;99.90;;;;;;4991213;28;20031;-73